Estación Meteorológica Peña el Pijo (Robertgarden) [ 07/23/19 01:24:30 CEST ]

Fecha Hora Presion(HPa) Temp (°C) Humedad % Rocio (°C) Viento ( m/s) Direccion Lluvia 1Hora(mm) Lluvia 24H(mm) LLuvia Total(mm)
2019-Jun-11 01:01:49 1006.700 13.6 49 3.1         325.82
2019-Jun-11 02:01:58 1005.900 13.4 50 3.2 0.5 N     325.82
2019-Jun-11 03:04:22 1005.800 12.3 53 2.9         325.82
2019-Jun-11 04:01:49 1005.100 11.6 55 2.8         325.82
2019-Jun-11 05:01:49 1004.500 9.0 63 2.3         325.82
2019-Jun-11 06:01:44 1003.900 7.9 69 2.6         325.82
2019-Jun-11 07:01:48 1003.900 8.9 69 3.5         325.82
2019-Jun-11 08:01:48 1003.800 11.6 65 5.2         325.82
2019-Jun-11 09:01:46 1003.400 17.4 48 6.2         325.82
2019-Jun-11 10:01:41 1003.200 20.8 36 5.1         325.82
2019-Jun-11 11:01:38 1002.800 22.8 30 4.3         325.82
2019-Jun-11 12:01:31 1002.500 24.8 28 4.8 0.6 NE     325.82
2019-Jun-11 13:01:33 1002.600 24.9 27 4.5         325.82
2019-Jun-11 14:01:46 1002.300 27.1 25 5.2 3.4 NE     325.82
2019-Jun-11 15:01:47 1001.800 28.5 23 5.1         325.82
2019-Jun-11 16:01:44 1001.900 28.9 23 5.5         325.82
2019-Jun-11 17:01:55 1001.900 28.3 25 6.1         325.82
2019-Jun-11 18:01:34 1002.000 26.4 26 5.1 0.1 NNW     325.82
2019-Jun-11 19:01:43 1002.500 25.0 27 4.6 2.2 N     325.82
2019-Jun-11 20:01:55 1003.000 24.2 31 6.0         325.82
2019-Jun-11 21:01:52 1004.000 19.1 38 4.4         325.82
2019-Jun-11 22:01:49 1005.100 16.3 64 9.5         325.82
2019-Jun-11 23:01:36 1005.900 14.9 71 9.7         325.82

Temperatura Máxima:28°    Temperatura Mínima:
Presión Máxima:1006.700 Hpa    Presión Mínima:1001.800 Hpa


Volver